Time,TemperatureF,DewpointF,PressureIn,WindDirection,WindDirectionDegrees,WindSpeedMPH,WindSpeedGustMPH,Humidity,HourlyPrecipIn,Conditions,Clouds,dailyrainin,SolarRadiationWatts/m^2,SoftwareType,DateUTC
2013-07-04 00:01:00,61.0,55.0,-100.00,SSW,212,2.0,6.0,80,0.00,,,0.00,0.000000,,2013-07-04 05:01:00,
2013-07-04 00:22:00,61.0,55.0,-100.00,SSW,212,2.0,6.0,80,0.00,,,0.00,0.000000,,2013-07-04 05:22:00,
2013-07-04 00:33:00,61.0,55.0,-100.00,SSW,212,2.0,6.0,80,0.00,,,0.00,0.000000,,2013-07-04 05:33:00,
2013-07-04 00:43:00,61.0,55.0,-100.00,SSW,212,2.0,6.0,80,0.00,,,0.00,0.000000,,2013-07-04 05:43:00,
2013-07-04 00:52:00,61.0,55.0,-100.00,SSW,212,2.0,6.0,80,0.00,,,0.00,0.000000,,2013-07-04 05:52:00,
2013-07-04 01:01:00,61.0,55.0,-100.00,SW,231,3.0,6.0,82,0.00,,,0.00,0.000000,,2013-07-04 06:01:00,
2013-07-04 01:22:00,61.0,55.0,-100.00,SW,231,3.0,6.0,82,0.00,,,0.00,0.000000,,2013-07-04 06:22:00,
2013-07-04 01:34:00,61.0,55.0,-100.00,SW,231,3.0,6.0,82,0.00,,,0.00,0.000000,,2013-07-04 06:34:00,
2013-07-04 01:43:00,61.0,55.0,-100.00,SW,231,3.0,6.0,82,0.00,,,0.00,0.000000,,2013-07-04 06:43:00,
2013-07-04 01:53:00,61.0,55.0,-100.00,SW,231,3.0,6.0,82,0.00,,,0.00,0.000000,,2013-07-04 06:53:00,
2013-07-04 02:01:00,61.0,56.0,-100.00,WSW,248,2.0,7.0,84,0.00,,,0.00,0.000000,,2013-07-04 07:01:00,
2013-07-04 02:22:00,61.0,56.0,-100.00,WSW,248,2.0,7.0,84,0.00,,,0.00,0.000000,,2013-07-04 07:22:00,
2013-07-04 02:34:00,61.0,56.0,-100.00,WSW,248,2.0,7.0,84,0.00,,,0.00,0.000000,,2013-07-04 07:34:00,
2013-07-04 02:43:00,61.0,56.0,-100.00,WSW,248,2.0,7.0,84,0.00,,,0.00,0.000000,,2013-07-04 07:43:00,
2013-07-04 02:52:00,61.0,56.0,-100.00,WSW,248,2.0,7.0,84,0.00,,,0.00,0.000000,,2013-07-04 07:52:00,
2013-07-04 03:01:00,61.0,56.0,-100.00,WSW,241,3.0,8.0,85,0.00,,,0.00,0.000000,,2013-07-04 08:01:00,
2013-07-04 03:22:00,61.0,56.0,-100.00,WSW,241,3.0,8.0,85,0.00,,,0.00,0.000000,,2013-07-04 08:22:00,
2013-07-04 03:33:00,61.0,56.0,-100.00,WSW,241,3.0,8.0,85,0.00,,,0.00,0.000000,,2013-07-04 08:33:00,
2013-07-04 03:43:00,61.0,56.0,-100.00,WSW,241,3.0,8.0,85,0.00,,,0.00,0.000000,,2013-07-04 08:43:00,
2013-07-04 03:53:00,61.0,56.0,-100.00,WSW,241,3.0,8.0,85,0.00,,,0.00,0.000000,,2013-07-04 08:53:00,
2013-07-04 04:01:00,56.0,55.0,-100.00,NW,324,1.0,4.0,95,0.00,,,0.00,0.000000,,2013-07-04 09:01:00,
2013-07-04 04:22:00,56.0,55.0,-100.00,NW,324,1.0,4.0,95,0.00,,,0.00,0.000000,,2013-07-04 09:22:00,
2013-07-04 04:33:00,56.0,55.0,-100.00,NW,324,1.0,4.0,95,0.00,,,0.00,0.000000,,2013-07-04 09:33:00,
2013-07-04 04:42:00,56.0,55.0,-100.00,NW,324,1.0,4.0,95,0.00,,,0.00,0.000000,,2013-07-04 09:42:00,
2013-07-04 04:52:00,56.0,55.0,-100.00,NW,324,1.0,4.0,95,0.00,,,0.00,0.000000,,2013-07-04 09:52:00,
2013-07-04 05:01:00,54.0,53.0,-100.00,North,354,1.0,2.0,98,0.00,,,0.00,0.000000,,2013-07-04 10:01:00,
2013-07-04 05:22:00,54.0,53.0,-100.00,North,354,1.0,2.0,98,0.00,,,0.00,0.000000,,2013-07-04 10:22:00,
2013-07-04 05:34:00,54.0,53.0,-100.00,North,354,1.0,2.0,98,0.00,,,0.00,0.000000,,2013-07-04 10:34:00,
2013-07-04 05:43:00,54.0,53.0,-100.00,North,354,1.0,2.0,98,0.00,,,0.00,0.000000,,2013-07-04 10:43:00,
2013-07-04 05:53:00,54.0,53.0,-100.00,North,354,1.0,2.0,98,0.00,,,0.00,0.000000,,2013-07-04 10:53:00,
2013-07-04 06:01:00,57.0,56.0,-100.00,SW,230,1.0,3.0,98,0.00,,,0.00,15.000000,,2013-07-04 11:01:00,
2013-07-04 06:22:00,57.0,56.0,-100.00,SW,230,1.0,3.0,98,0.00,,,0.00,15.000000,,2013-07-04 11:22:00,
2013-07-04 06:34:00,57.0,56.0,-100.00,SW,230,1.0,3.0,98,0.00,,,0.00,15.000000,,2013-07-04 11:34:00,
2013-07-04 06:43:00,57.0,56.0,-100.00,SW,230,1.0,3.0,98,0.00,,,0.00,15.000000,,2013-07-04 11:43:00,
2013-07-04 06:53:00,57.0,56.0,-100.00,SW,230,1.0,3.0,98,0.00,,,0.00,15.000000,,2013-07-04 11:53:00,
2013-07-04 07:01:00,62.0,58.0,-100.00,SW,236,3.0,5.0,88,0.00,,,0.00,63.000000,,2013-07-04 12:01:00,
2013-07-04 07:22:00,62.0,58.0,-100.00,SW,236,3.0,5.0,88,0.00,,,0.00,63.000000,,2013-07-04 12:22:00,
2013-07-04 07:33:00,62.0,58.0,-100.00,SW,236,3.0,5.0,88,0.00,,,0.00,63.000000,,2013-07-04 12:33:00,
2013-07-04 07:43:00,62.0,58.0,-100.00,SW,236,3.0,5.0,88,0.00,,,0.00,63.000000,,2013-07-04 12:43:00,
2013-07-04 07:52:00,62.0,58.0,-100.00,SW,236,3.0,5.0,88,0.00,,,0.00,63.000000,,2013-07-04 12:52:00,
2013-07-04 08:01:00,65.0,59.0,-100.00,SSW,212,2.0,5.0,80,0.00,,,0.00,137.000000,,2013-07-04 13:01:00,
2013-07-04 08:23:00,65.0,59.0,-100.00,SSW,212,2.0,5.0,80,0.00,,,0.00,137.000000,,2013-07-04 13:23:00,
2013-07-04 08:33:00,65.0,59.0,-100.00,SSW,212,2.0,5.0,80,0.00,,,0.00,137.000000,,2013-07-04 13:33:00,
2013-07-04 08:43:00,65.0,59.0,-100.00,SSW,212,2.0,5.0,80,0.00,,,0.00,137.000000,,2013-07-04 13:43:00,
2013-07-04 08:53:00,65.0,59.0,-100.00,SSW,212,2.0,5.0,80,0.00,,,0.00,137.000000,,2013-07-04 13:53:00,
2013-07-04 09:01:00,72.0,58.0,-100.00,WSW,243,6.0,9.0,62,0.00,,,0.00,487.000000,,2013-07-04 14:01:00,
2013-07-04 09:22:00,72.0,58.0,-100.00,WSW,243,6.0,9.0,62,0.00,,,0.00,487.000000,,2013-07-04 14:22:00,
2013-07-04 09:33:00,72.0,58.0,-100.00,WSW,243,6.0,9.0,62,0.00,,,0.00,487.000000,,2013-07-04 14:33:00,
2013-07-04 09:43:00,72.0,58.0,-100.00,WSW,243,6.0,9.0,62,0.00,,,0.00,487.000000,,2013-07-04 14:43:00,
2013-07-04 09:53:00,72.0,58.0,-100.00,WSW,243,6.0,9.0,62,0.00,,,0.00,487.000000,,2013-07-04 14:53:00,
2013-07-04 10:01:00,75.0,58.0,-100.00,SW,235,4.0,9.0,56,0.00,,,0.00,675.000000,,2013-07-04 15:01:00,
2013-07-04 10:23:00,75.0,58.0,-100.00,SW,235,4.0,9.0,56,0.00,,,0.00,675.000000,,2013-07-04 15:23:00,
2013-07-04 10:33:00,75.0,58.0,-100.00,SW,235,4.0,9.0,56,0.00,,,0.00,675.000000,,2013-07-04 15:33:00,
2013-07-04 10:43:00,75.0,58.0,-100.00,SW,235,4.0,9.0,56,0.00,,,0.00,675.000000,,2013-07-04 15:43:00,
2013-07-04 10:53:00,75.0,58.0,-100.00,SW,235,4.0,9.0,56,0.00,,,0.00,675.000000,,2013-07-04 15:53:00,
2013-07-04 11:01:00,78.0,57.0,-100.00,SW,224,6.0,12.0,48,0.00,,,0.00,836.000000,,2013-07-04 16:01:00,
2013-07-04 11:22:00,78.0,57.0,-100.00,SW,224,6.0,12.0,48,0.00,,,0.00,836.000000,,2013-07-04 16:22:00,
2013-07-04 11:33:00,78.0,57.0,-100.00,SW,224,6.0,12.0,48,0.00,,,0.00,836.000000,,2013-07-04 16:33:00,
2013-07-04 11:43:00,78.0,57.0,-100.00,SW,224,6.0,12.0,48,0.00,,,0.00,836.000000,,2013-07-04 16:43:00,
2013-07-04 11:52:00,78.0,57.0,-100.00,SW,224,6.0,12.0,48,0.00,,,0.00,836.000000,,2013-07-04 16:52:00,
2013-07-04 12:01:00,79.0,53.0,-100.00,SW,229,8.0,15.0,40,0.00,,,0.00,959.000000,,2013-07-04 17:01:00,
2013-07-04 12:22:00,79.0,53.0,-100.00,SW,229,8.0,15.0,40,0.00,,,0.00,959.000000,,2013-07-04 17:22:00,
2013-07-04 12:34:00,79.0,53.0,-100.00,SW,229,8.0,15.0,40,0.00,,,0.00,959.000000,,2013-07-04 17:34:00,
2013-07-04 12:43:00,79.0,53.0,-100.00,SW,229,8.0,15.0,40,0.00,,,0.00,959.000000,,2013-07-04 17:43:00,
2013-07-04 12:53:00,79.0,53.0,-100.00,SW,229,8.0,15.0,40,0.00,,,0.00,959.000000,,2013-07-04 17:53:00,
2013-07-04 13:01:00,80.0,53.0,-100.00,West,267,6.0,15.0,39,0.00,,,0.00,1014.000000,,2013-07-04 18:01:00,
2013-07-04 13:22:00,80.0,53.0,-100.00,West,267,6.0,15.0,39,0.00,,,0.00,1014.000000,,2013-07-04 18:22:00,
2013-07-04 13:33:00,80.0,53.0,-100.00,West,267,6.0,15.0,39,0.00,,,0.00,1014.000000,,2013-07-04 18:33:00,
2013-07-04 13:43:00,80.0,53.0,-100.00,West,267,6.0,15.0,39,0.00,,,0.00,1014.000000,,2013-07-04 18:43:00,
2013-07-04 13:52:00,80.0,53.0,-100.00,West,267,6.0,15.0,39,0.00,,,0.00,1014.000000,,2013-07-04 18:52:00,
2013-07-04 14:01:00,80.0,54.0,-100.00,SW,236,7.0,14.0,41,0.00,,,0.00,879.000000,,2013-07-04 19:01:00,
2013-07-04 14:22:00,80.0,54.0,-100.00,SW,236,7.0,14.0,41,0.00,,,0.00,879.000000,,2013-07-04 19:22:00,
2013-07-04 14:34:00,80.0,54.0,-100.00,SW,236,7.0,14.0,41,0.00,,,0.00,879.000000,,2013-07-04 19:34:00,
2013-07-04 14:43:00,80.0,54.0,-100.00,SW,236,7.0,14.0,41,0.00,,,0.00,879.000000,,2013-07-04 19:43:00,
2013-07-04 14:53:00,80.0,54.0,-100.00,SW,236,7.0,14.0,41,0.00,,,0.00,879.000000,,2013-07-04 19:53:00,
2013-07-04 15:01:00,81.0,56.0,-100.00,SW,225,6.0,14.0,43,0.00,,,0.00,760.000000,,2013-07-04 20:01:00,
2013-07-04 15:22:00,81.0,56.0,-100.00,SW,225,6.0,14.0,43,0.00,,,0.00,760.000000,,2013-07-04 20:22:00,
2013-07-04 15:34:00,81.0,56.0,-100.00,SW,225,6.0,14.0,43,0.00,,,0.00,760.000000,,2013-07-04 20:34:00,
2013-07-04 15:42:00,81.0,56.0,-100.00,SW,225,6.0,14.0,43,0.00,,,0.00,760.000000,,2013-07-04 20:42:00,
2013-07-04 15:53:00,81.0,56.0,-100.00,SW,225,6.0,14.0,43,0.00,,,0.00,760.000000,,2013-07-04 20:53:00,
2013-07-04 16:01:00,81.0,56.0,-100.00,WSW,238,9.0,21.0,42,0.00,,,0.00,614.000000,,2013-07-04 21:01:00,
2013-07-04 16:22:00,81.0,56.0,-100.00,WSW,238,9.0,21.0,42,0.00,,,0.00,614.000000,,2013-07-04 21:22:00,
2013-07-04 16:32:00,81.0,56.0,-100.00,WSW,238,9.0,21.0,42,0.00,,,0.00,614.000000,,2013-07-04 21:32:00,
2013-07-04 16:43:00,81.0,56.0,-100.00,WSW,238,9.0,21.0,42,0.00,,,0.00,614.000000,,2013-07-04 21:43:00,
2013-07-04 16:53:00,81.0,56.0,-100.00,WSW,238,9.0,21.0,42,0.00,,,0.00,614.000000,,2013-07-04 21:53:00,
2013-07-04 17:01:00,80.0,57.0,-100.00,SW,235,8.0,13.0,45,0.00,,,0.00,410.000000,,2013-07-04 22:01:00,
2013-07-04 17:22:00,80.0,57.0,-100.00,SW,235,8.0,13.0,45,0.00,,,0.00,410.000000,,2013-07-04 22:22:00,
2013-07-04 17:33:00,80.0,57.0,-100.00,SW,235,8.0,13.0,45,0.00,,,0.00,410.000000,,2013-07-04 22:33:00,
2013-07-04 17:43:00,80.0,57.0,-100.00,SW,235,8.0,13.0,45,0.00,,,0.00,410.000000,,2013-07-04 22:43:00,
2013-07-04 17:52:00,80.0,57.0,-100.00,SW,235,8.0,13.0,45,0.00,,,0.00,410.000000,,2013-07-04 22:52:00,
2013-07-04 18:01:00,81.0,59.0,-100.00,SW,232,5.0,12.0,48,0.00,,,0.00,396.000000,,2013-07-04 23:01:00,
2013-07-04 18:23:00,81.0,59.0,-100.00,SW,232,5.0,12.0,48,0.00,,,0.00,396.000000,,2013-07-04 23:23:00,
2013-07-04 18:33:00,81.0,59.0,-100.00,SW,232,5.0,12.0,48,0.00,,,0.00,396.000000,,2013-07-04 23:33:00,
2013-07-04 18:43:00,81.0,59.0,-100.00,SW,232,5.0,12.0,48,0.00,,,0.00,396.000000,,2013-07-04 23:43:00,
2013-07-04 18:52:00,81.0,59.0,-100.00,SW,232,5.0,12.0,48,0.00,,,0.00,396.000000,,2013-07-04 23:52:00,
2013-07-04 19:01:00,80.0,59.0,-100.00,SW,232,5.0,18.0,49,0.00,,,0.00,346.000000,,2013-07-05 00:01:00,
2013-07-04 19:22:00,80.0,59.0,-100.00,SW,232,5.0,18.0,49,0.00,,,0.00,346.000000,,2013-07-05 00:22:00,
2013-07-04 19:32:00,80.0,59.0,-100.00,SW,232,5.0,18.0,49,0.00,,,0.00,346.000000,,2013-07-05 00:32:00,
2013-07-04 19:43:00,80.0,59.0,-100.00,SW,232,5.0,18.0,49,0.00,,,0.00,346.000000,,2013-07-05 00:43:00,
2013-07-04 19:52:00,80.0,59.0,-100.00,SW,232,5.0,18.0,49,0.00,,,0.00,346.000000,,2013-07-05 00:52:00,
2013-07-04 20:01:00,77.0,59.0,-100.00,SW,233,6.0,13.0,54,0.00,,,-99.99,167.000000,,2013-07-05 01:01:00,
2013-07-04 20:22:00,77.0,59.0,-100.00,SW,233,6.0,13.0,54,0.00,,,-99.99,167.000000,,2013-07-05 01:22:00,
2013-07-04 20:32:00,77.0,59.0,-100.00,SW,233,6.0,13.0,54,0.00,,,-99.99,167.000000,,2013-07-05 01:32:00,
2013-07-04 20:42:00,77.0,59.0,-100.00,SW,233,6.0,13.0,54,0.00,,,-99.99,167.000000,,2013-07-05 01:42:00,
2013-07-04 20:52:00,77.0,59.0,-100.00,SW,233,6.0,13.0,54,0.00,,,-99.99,167.000000,,2013-07-05 01:52:00,
2013-07-04 21:01:00,72.0,58.0,-100.00,SW,235,4.0,9.0,61,0.00,,,0.00,30.000000,,2013-07-05 02:01:00,
2013-07-04 21:22:00,72.0,58.0,-100.00,SW,235,4.0,9.0,61,0.00,,,0.00,30.000000,,2013-07-05 02:22:00,
2013-07-04 21:32:00,72.0,58.0,-100.00,SW,235,4.0,9.0,61,0.00,,,0.00,30.000000,,2013-07-05 02:32:00,
2013-07-04 21:43:00,72.0,58.0,-100.00,SW,235,4.0,9.0,61,0.00,,,0.00,30.000000,,2013-07-05 02:43:00,
2013-07-04 21:52:00,72.0,58.0,-100.00,SW,235,4.0,9.0,61,0.00,,,0.00,30.000000,,2013-07-05 02:52:00,
2013-07-04 22:01:00,64.0,59.0,-100.00,WSW,253,2.0,6.0,83,0.00,,,0.00,1.000000,,2013-07-05 03:01:00,
2013-07-04 22:22:00,64.0,59.0,-100.00,WSW,253,2.0,6.0,83,0.00,,,0.00,1.000000,,2013-07-05 03:22:00,
2013-07-04 22:33:00,64.0,59.0,-100.00,WSW,253,2.0,6.0,83,0.00,,,0.00,1.000000,,2013-07-05 03:33:00,
2013-07-04 22:42:00,64.0,59.0,-100.00,WSW,253,2.0,6.0,83,0.00,,,0.00,1.000000,,2013-07-05 03:42:00,
2013-07-04 22:52:00,64.0,59.0,-100.00,WSW,253,2.0,6.0,83,0.00,,,0.00,1.000000,,2013-07-05 03:52:00,
2013-07-04 23:01:00,65.0,58.0,-100.00,SW,226,3.0,6.0,78,0.00,,,0.00,0.000000,,2013-07-05 04:01:00,
2013-07-04 23:22:00,65.0,58.0,-100.00,SW,226,3.0,6.0,78,0.00,,,0.00,0.000000,,2013-07-05 04:22:00,
2013-07-04 23:33:00,65.0,58.0,-100.00,SW,226,3.0,6.0,78,0.00,,,0.00,0.000000,,2013-07-05 04:33:00,
2013-07-04 23:43:00,65.0,58.0,-100.00,SW,226,3.0,6.0,78,0.00,,,0.00,0.000000,,2013-07-05 04:43:00,
2013-07-04 23:53:00,65.0,58.0,-100.00,SW,226,3.0,6.0,78,0.00,,,0.00,0.000000,,2013-07-05 04:53:00,